Time;durP1;ratioP1;P1;durP2;ratioP2;P2;SDS_P1;SDS_P2;PMS_P1;PMS_P2;Temp;Humidity;BMP_temperature;BMP_pressure;BME280_temperature;BME280_humidity;BME280_pressure;Samples;Min_cycle;Max_cycle;Signal;HPM_P1;HPM_P2
2022/12/02 00:00:14;;;;;;;2.80;1.40;;;;;;;-0.31;46.73;100577.38;24523;1322;3028432;-64
2022/12/02 00:02:44;;;;;;;4.10;1.70;;;;;;;-0.22;46.35;100572.06;24507;1335;3049586;-62
2022/12/02 00:05:13;;;;;;;3.90;1.70;;;;;;;-0.32;46.19;100579.79;24488;1334;3028922;-61
2022/12/02 00:07:43;;;;;;;3.80;1.80;;;;;;;-0.37;46.67;100578.39;24543;1334;3028677;-61
2022/12/02 00:10:32;;;;;;;3.40;1.70;;;;;;;-0.39;46.96;100574.44;24513;1334;3049584;-61
2022/12/02 00:13:09;;;;;;;4.20;1.90;;;;;;;-0.30;46.60;100575.48;24472;1333;3069425;-63
2022/12/02 00:15:41;;;;;;;4.30;1.80;;;;;;;-0.32;46.36;100573.42;24514;1325;3049936;-62
2022/12/02 00:18:12;;;;;;;4.60;1.80;;;;;;;-0.24;46.41;100573.09;24510;1337;3028442;-63
2022/12/02 00:20:42;;;;;;;4.70;1.80;;;;;;;-0.40;46.58;100574.43;24500;1334;3028088;-63
2022/12/02 00:23:12;;;;;;;6.20;1.90;;;;;;;-0.44;47.04;100575.45;24518;1337;3030254;-61
2022/12/02 00:25:45;;;;;;;5.90;1.60;;;;;;;-0.51;47.08;100566.48;24510;1324;3026636;-62
2022/12/02 00:28:14;;;;;;;4.80;1.90;;;;;;;-0.69;47.93;100571.42;24586;1331;3053543;-62
2022/12/02 00:30:45;;;;;;;4.10;1.80;;;;;;;-0.71;47.79;100573.83;24535;1336;3026950;-61
2022/12/02 00:33:14;;;;;;;5.80;2.00;;;;;;;-0.63;48.28;100577.30;24501;1327;3026035;-61
2022/12/02 00:35:45;;;;;;;9.10;2.60;;;;;;;-0.85;48.49;100570.35;24498;1331;3051891;-62
2022/12/02 00:38:14;;;;;;;4.90;1.80;;;;;;;-0.83;48.43;100567.26;24541;1324;3028249;-62
2022/12/02 00:40:43;;;;;;;6.20;1.90;;;;;;;-0.74;47.99;100567.29;24494;1328;3051715;-62
2022/12/02 00:48:49;;;;;;;4.80;1.60;;;;;;;-0.80;47.94;100562.27;24481;1315;3069621;-66
2022/12/02 00:51:18;;;;;;;4.80;1.50;;;;;;;-0.92;48.34;100561.38;24523;1327;3028228;-62
2022/12/02 00:53:47;;;;;;;4.60;1.50;;;;;;;-1.08;48.99;100561.48;24491;1331;3049339;-60
2022/12/02 00:56:16;;;;;;;4.40;1.60;;;;;;;-1.07;49.00;100555.13;24476;1330;3028720;-62
2022/12/02 00:58:45;;;;;;;5.80;1.60;;;;;;;-1.01;49.23;100558.23;24499;1334;3052619;-62
2022/12/02 01:01:15;;;;;;;4.20;1.70;;;;;;;-1.09;49.03;100557.52;24523;1330;3028527;-62
2022/12/02 01:03:44;;;;;;;4.10;1.30;;;;;;;-1.16;49.32;100553.53;24494;1324;3028511;-60
2022/12/02 01:06:13;;;;;;;5.20;1.80;;;;;;;-1.14;49.10;100552.86;24497;1331;3052514;-64
2022/12/02 01:08:42;;;;;;;3.80;1.60;;;;;;;-1.18;49.78;100554.55;24522;1328;3028337;-60
2022/12/02 01:11:12;;;;;;;2.80;1.30;;;;;;;-1.26;49.93;100554.87;24488;1328;3051660;-61
2022/12/02 01:13:43;;;;;;;2.90;1.20;;;;;;;-1.16;50.05;100550.60;24522;1338;3027168;-63
2022/12/02 01:16:13;;;;;;;4.10;1.90;;;;;;;-1.29;50.47;100552.27;24574;1330;3027328;-60
2022/12/02 01:18:42;;;;;;;3.80;1.30;;;;;;;-1.33;50.67;100554.66;24512;1347;3026121;-61
2022/12/02 01:21:11;;;;;;;3.30;1.30;;;;;;;-1.45;51.19;100546.34;24515;1331;3027990;-61
2022/12/02 01:23:40;;;;;;;5.50;1.60;;;;;;;-1.46;51.04;100549.92;24519;1334;3050588;-61
2022/12/02 01:26:09;;;;;;;3.00;1.60;;;;;;;-1.31;51.24;100546.92;24474;1338;3028721;-62
2022/12/02 01:28:38;;;;;;;4.20;1.20;;;;;;;-1.37;51.18;100547.41;24474;1334;3052262;-61
2022/12/02 01:31:07;;;;;;;3.30;1.50;;;;;;;-1.44;50.96;100547.54;24500;1323;3028581;-61
2022/12/02 01:33:36;;;;;;;2.30;1.20;;;;;;;-1.34;50.90;100544.85;24500;1334;3051574;-65
2022/12/02 01:36:05;;;;;;;3.50;1.80;;;;;;;-1.39;50.99;100549.80;24475;1324;3028645;-63
2022/12/02 01:38:35;;;;;;;3.20;1.50;;;;;;;-1.57;51.63;100541.97;24512;1334;3054452;-63
2022/12/02 01:41:04;;;;;;;5.30;1.80;;;;;;;-1.59;51.79;100538.68;24511;1332;3030595;-62
2022/12/02 01:43:33;;;;;;;9.00;1.80;;;;;;;-1.53;51.62;100540.09;24487;1334;3051334;-62
2022/12/02 01:46:02;;;;;;;6.50;1.80;;;;;;;-1.56;51.75;100535.96;24550;1333;3028843;-60
2022/12/02 01:48:31;;;;;;;5.30;1.90;;;;;;;-1.66;52.17;100539.84;24415;1342;3055889;-62
2022/12/02 01:51:00;;;;;;;7.00;1.60;;;;;;;-1.75;52.24;100535.33;24465;1340;3025628;-61
2022/12/02 01:53:29;;;;;;;4.80;2.10;;;;;;;-1.60;51.76;100534.04;24442;1337;3049694;-62
2022/12/02 01:55:58;;;;;;;3.80;1.20;;;;;;;-1.69;52.21;100533.13;24531;1324;3028710;-61
2022/12/02 01:58:28;;;;;;;4.10;1.50;;;;;;;-1.63;52.05;100535.40;24412;1332;3069042;-62
2022/12/02 02:00:57;;;;;;;2.60;1.30;;;;;;;-1.61;52.10;100538.67;24483;1333;3028098;-63
2022/12/02 02:03:27;;;;;;;3.20;1.50;;;;;;;-1.72;52.42;100539.98;24457;1334;3028630;-62
2022/12/02 02:05:56;;;;;;;4.60;1.90;;;;;;;-1.74;52.46;100541.33;24518;1316;3026749;-62
2022/12/02 02:08:26;;;;;;;5.30;2.20;;;;;;;-1.65;52.24;100536.42;24490;1332;3049462;-61
2022/12/02 02:10:55;;;;;;;5.50;2.00;;;;;;;-1.75;52.72;100543.57;24449;1334;3025896;-61
2022/12/02 02:13:26;;;;;;;3.00;1.40;;;;;;;-1.77;52.89;100537.70;24512;1330;3068150;-62
2022/12/02 02:15:55;;;;;;;4.80;1.90;;;;;;;-1.70;52.66;100534.66;24493;1334;3029205;-60
2022/12/02 02:18:24;;;;;;;4.10;1.40;;;;;;;-1.66;52.50;100534.18;24462;1329;3028362;-61
2022/12/02 02:20:54;;;;;;;3.80;1.50;;;;;;;-1.72;52.92;100537.23;24484;1332;3069504;-62
2022/12/02 02:23:24;;;;;;;2.60;1.40;;;;;;;-1.75;52.92;100536.86;24421;1337;3027929;-62
2022/12/02 02:25:56;;;;;;;2.60;1.10;;;;;;;-1.74;52.70;100529.14;24539;1331;3026502;-62
2022/12/02 02:28:28;;;;;;;5.50;1.80;;;;;;;-1.72;52.77;100534.13;24514;1341;3051305;-62
2022/12/02 02:30:57;;;;;;;3.90;1.90;;;;;;;-1.82;53.28;100535.95;24430;1336;3028211;-62
2022/12/02 02:33:30;;;;;;;3.80;1.70;;;;;;;-1.92;53.79;100531.42;24535;1327;3056971;-61
2022/12/02 02:35:59;;;;;;;4.00;1.40;;;;;;;-1.91;53.99;100529.52;24465;1328;3027362;-61
2022/12/02 02:38:29;;;;;;;4.20;1.70;;;;;;;-1.83;53.74;100528.73;24430;1340;3025944;-63
2022/12/02 02:40:58;;;;;;;3.00;1.30;;;;;;;-1.72;53.58;100524.00;24528;1340;3026093;-62
2022/12/02 02:43:27;;;;;;;4.80;1.70;;;;;;;-1.78;53.56;100515.02;24418;1341;3052107;-62
2022/12/02 11:03:51;;;;;;;7.20;2.50;;;;;;;2.59;51.91;100403.02;30710;1337;3018582;-62
2022/12/02 11:06:21;;;;;;;7.40;2.00;;;;;;;2.61;52.92;100404.91;24443;1333;3025858;-63
2022/12/02 11:08:50;;;;;;;3.10;1.50;;;;;;;2.60;52.97;100398.00;24391;1333;3029042;-65
2022/12/02 11:11:22;;;;;;;5.40;1.50;;;;;;;2.71;52.77;100407.55;24312;1337;3049601;-63
2022/12/02 11:13:54;;;;;;;3.50;1.30;;;;;;;2.84;52.48;100407.73;24498;1337;3029128;-62
2022/12/02 11:16:26;;;;;;;3.60;1.20;;;;;;;2.97;52.50;100407.70;23810;1341;4357169;-62
2022/12/02 11:18:57;;;;;;;4.10;1.60;;;;;;;3.06;52.51;100404.98;24560;1341;3049715;-64
2022/12/02 11:21:26;;;;;;;4.20;1.50;;;;;;;3.07;52.32;100398.91;24596;1334;3029401;-64
2022/12/02 11:24:23;;;;;;;3.20;1.30;;;;;;;3.09;52.43;100401.82;24569;1324;3026518;-64
2022/12/02 11:26:58;;;;;;;4.30;1.40;;;;;;;3.15;52.64;100404.16;24639;1324;3050032;-63
2022/12/02 11:29:37;;;;;;;5.00;1.60;;;;;;;3.25;52.31;100405.21;24563;1327;3068684;-62
2022/12/02 11:32:25;;;;;;;2.90;1.20;;;;;;;3.24;52.51;100404.19;25326;1317;3049567;-65
2022/12/02 11:34:56;;;;;;;3.10;1.30;;;;;;;3.26;52.69;100407.09;25376;1317;3057212;-60
2022/12/02 11:37:25;;;;;;;2.80;1.20;;;;;;;3.38;52.57;100410.39;24503;1334;3028997;-63
2022/12/02 11:40:09;;;;;;;2.90;1.20;;;;;;;3.42;52.34;100406.17;24524;1334;3025678;-66
2022/12/02 11:42:43;;;;;;;6.90;1.70;;;;;;;3.48;52.37;100411.44;24526;1333;3052069;-60
2022/12/02 11:45:35;;;;;;;6.40;1.70;;;;;;;3.52;52.02;100407.04;24535;1339;3026044;-63
2022/12/02 11:48:14;;;;;;;5.40;1.90;;;;;;;3.64;51.65;100410.48;24581;1340;3049977;-63
2022/12/02 11:50:43;;;;;;;6.00;2.00;;;;;;;3.72;51.41;100408.10;24504;1332;3069327;-61
2022/12/02 11:53:17;;;;;;;6.80;2.30;;;;;;;3.69;51.07;100406.75;24494;1335;3028333;-62
2022/12/02 11:55:50;;;;;;;7.90;2.00;;;;;;;3.58;51.02;100408.48;24544;1335;3055187;-58
2022/12/02 11:58:22;;;;;;;7.20;2.20;;;;;;;3.57;51.43;100410.42;24474;1334;3025931;-60
2022/12/02 12:01:14;;;;;;;7.20;2.20;;;;;;;3.68;51.25;100413.88;24524;1324;3029081;-63
2022/12/02 12:03:46;;;;;;;6.00;2.40;;;;;;;3.77;50.92;100415.63;24552;1324;3050881;-63
2022/12/02 12:06:23;;;;;;;4.40;1.40;;;;;;;3.75;51.15;100414.96;24508;1334;3025968;-65
2022/12/02 12:08:54;;;;;;;5.30;1.80;;;;;;;3.68;50.78;100410.40;24535;1339;3048938;-62
2022/12/02 12:11:29;;;;;;;4.50;1.70;;;;;;;3.64;50.77;100414.27;24465;1332;3025268;-61
2022/12/02 12:13:59;;;;;;;4.70;1.70;;;;;;;3.63;50.52;100414.30;24548;1326;3050888;-63
2022/12/02 12:16:31;;;;;;;8.10;1.20;;;;;;;3.69;50.44;100413.68;24513;1334;3027595;-62
2022/12/02 12:19:12;;;;;;;5.30;1.40;;;;;;;3.63;50.23;100408.06;24539;1334;3026260;-62
2022/12/02 12:21:51;;;;;;;3.90;1.20;;;;;;;3.55;50.09;100403.01;24454;1334;3052705;-63
2022/12/02 12:24:21;;;;;;;5.00;1.20;;;;;;;3.63;49.90;100406.17;24516;1324;3050881;-63
2022/12/02 12:26:56;;;;;;;7.80;1.50;;;;;;;3.71;49.63;100411.05;24496;1327;3028325;-62
2022/12/02 12:29:30;;;;;;;4.10;1.50;;;;;;;3.77;49.73;100413.21;24492;1337;3049572;-62
2022/12/02 12:31:59;;;;;;;3.50;1.70;;;;;;;3.74;49.62;100410.66;24498;1324;3026765;-63
2022/12/02 12:34:29;;;;;;;4.50;1.20;;;;;;;3.59;49.48;100402.77;24578;1316;3025721;-62
2022/12/02 12:36:58;;;;;;;5.70;1.40;;;;;;;3.50;48.94;100411.91;24507;1332;3048861;-63
2022/12/02 12:39:27;;;;;;;7.20;1.70;;;;;;;3.56;48.99;100412.86;24448;1324;3028731;-62
2022/12/02 12:41:56;;;;;;;8.10;1.90;;;;;;;3.60;49.05;100418.86;24541;1326;3052130;-63
2022/12/02 12:44:27;;;;;;;4.50;1.70;;;;;;;3.56;49.05;100423.42;24554;1334;3026996;-64
2022/12/02 12:46:58;;;;;;;3.20;1.20;;;;;;;3.50;49.26;100424.04;24538;1326;3026451;-63
2022/12/02 12:49:27;;;;;;;4.60;1.70;;;;;;;3.50;49.15;100429.23;24492;1339;3027155;-60
2022/12/02 12:51:56;;;;;;;6.60;1.20;;;;;;;3.57;49.17;100429.64;24505;1322;3025809;-64
2022/12/02 12:54:25;;;;;;;3.40;1.30;;;;;;;3.59;48.84;100434.64;24500;1329;3069930;-62
2022/12/02 12:56:54;;;;;;;5.40;1.40;;;;;;;3.51;48.97;100437.20;24531;1333;3028183;-61
2022/12/02 12:59:23;;;;;;;4.40;1.30;;;;;;;3.46;48.97;100431.39;24463;1323;3028115;-61
2022/12/02 13:01:52;;;;;;;2.60;1.20;;;;;;;3.52;48.83;100435.45;24557;1333;3068473;-62
2022/12/02 13:04:21;;;;;;;7.10;1.50;;;;;;;3.49;48.61;100438.10;24518;1324;3028723;-63
2022/12/02 13:06:51;;;;;;;4.90;1.50;;;;;;;3.50;48.30;100441.70;24475;1334;3049108;-63
2022/12/02 13:09:20;;;;;;;5.40;1.40;;;;;;;3.42;48.19;100447.73;24540;1320;3028554;-63
2022/12/02 13:11:52;;;;;;;4.80;1.30;;;;;;;3.42;48.05;100448.95;24498;1332;3052272;-61
2022/12/02 13:14:22;;;;;;;4.30;1.40;;;;;;;3.35;48.23;100455.28;24522;1332;3027238;-64
2022/12/02 13:16:51;;;;;;;5.40;1.40;;;;;;;3.40;47.95;100461.27;24491;1326;3050375;-62
2022/12/02 13:19:21;;;;;;;7.30;1.80;;;;;;;3.45;47.87;100464.66;24585;1340;3026617;-60
2022/12/02 13:21:50;;;;;;;8.90;2.00;;;;;;;3.50;47.46;100459.38;24602;1330;3026169;-62
2022/12/02 13:24:19;;;;;;;8.30;1.50;;;;;;;3.43;47.34;100463.82;24485;1324;3028556;-64
2022/12/02 13:26:48;;;;;;;3.60;1.40;;;;;;;3.53;47.03;100466.95;24515;1334;3052447;-61
2022/12/02 13:29:19;;;;;;;9.30;2.30;;;;;;;3.49;47.00;100466.15;24515;1326;3026118;-62
2022/12/02 13:31:48;;;;;;;3.10;1.30;;;;;;;3.38;47.13;100465.80;24471;1316;3028106;-61
2022/12/02 13:34:18;;;;;;;4.80;1.80;;;;;;;3.39;46.80;100470.80;24568;1334;3052199;-64
2022/12/02 13:36:47;;;;;;;6.20;1.70;;;;;;;3.42;46.80;100467.83;24455;1323;3028242;-63
2022/12/02 13:39:16;;;;;;;7.20;1.50;;;;;;;3.39;46.61;100473.06;24515;1332;3050801;-60
2022/12/02 13:41:45;;;;;;;3.70;1.50;;;;;;;3.44;46.53;100467.44;24506;1332;3028797;-63
2022/12/02 13:44:14;;;;;;;3.60;1.40;;;;;;;3.40;46.34;100472.01;24563;1337;3053492;-62
2022/12/02 13:46:43;;;;;;;5.30;1.70;;;;;;;3.35;46.38;100478.84;24499;1332;3028475;-60
2022/12/02 13:49:12;;;;;;;3.70;1.30;;;;;;;3.41;46.28;100482.91;24513;1323;3053881;-60
2022/12/02 13:51:41;;;;;;;5.80;1.90;;;;;;;3.32;46.32;100483.91;24508;1318;3025911;-61
2022/12/02 13:54:10;;;;;;;3.80;1.60;;;;;;;3.39;46.50;100489.17;24475;1334;3056127;-59
2022/12/02 13:56:39;;;;;;;3.90;1.50;;;;;;;3.31;46.19;100491.19;24527;1324;3026127;-64
2022/12/02 14:23:22;;;;;;;3.70;2.00;;;;;;;2.72;46.52;100497.50;30686;1331;3013039;-63
2022/12/02 14:25:52;;;;;;;5.70;1.80;;;;;;;2.73;46.52;100502.15;24409;1339;3028585;-64
2022/12/02 14:28:21;;;;;;;6.60;1.90;;;;;;;2.78;46.27;100499.15;24400;1332;3026025;-64
2022/12/02 14:30:50;;;;;;;4.00;1.70;;;;;;;2.72;46.26;100506.83;24424;1339;3048743;-65
2022/12/02 14:33:20;;;;;;;5.20;2.10;;;;;;;2.80;46.00;100503.98;24423;1339;3027213;-62
2022/12/02 14:35:51;;;;;;;4.40;2.00;;;;;;;2.85;46.23;100508.23;23797;1329;4576820;-63
2022/12/02 14:38:20;;;;;;;6.20;2.40;;;;;;;2.87;46.00;100507.18;24528;1326;3027412;-63
2022/12/02 14:40:53;;;;;;;5.00;2.00;;;;;;;2.80;45.94;100507.09;24427;1340;3026172;-62
2022/12/02 14:43:22;;;;;;;4.70;2.50;;;;;;;2.82;45.58;100507.23;24523;1326;3026580;-63
2022/12/02 14:45:51;;;;;;;5.30;2.00;;;;;;;2.84;45.48;100505.48;24462;1333;3049155;-63
2022/12/02 14:48:20;;;;;;;9.80;2.20;;;;;;;2.87;45.43;100507.86;24493;1336;3027531;-62
2022/12/02 14:50:53;;;;;;;8.40;2.30;;;;;;;2.94;45.94;100512.28;24548;1333;3052355;-63
2022/12/02 14:53:23;;;;;;;6.50;2.40;;;;;;;2.94;45.63;100510.39;24453;1333;3026673;-64
2022/12/02 14:55:52;;;;;;;4.90;2.30;;;;;;;2.84;45.83;100512.40;24525;1339;3028090;-63
2022/12/02 14:58:21;;;;;;;3.90;1.80;;;;;;;2.81;45.82;100515.55;24521;1332;3026623;-63
2022/12/02 15:00:50;;;;;;;8.10;2.20;;;;;;;2.82;45.71;100518.14;24510;1343;3048963;-63
2022/12/02 15:03:19;;;;;;;8.80;2.50;;;;;;;2.83;45.62;100515.70;24500;1326;3028558;-62
2022/12/02 15:05:48;;;;;;;7.80;2.20;;;;;;;2.81;45.40;100521.79;24508;1330;3052239;-62
2022/12/02 15:08:17;;;;;;;8.00;2.70;;;;;;;2.57;44.97;100530.02;24467;1333;3027929;-61
2022/12/02 15:10:46;;;;;;;9.80;3.10;;;;;;;2.50;44.36;100531.81;24492;1326;3026047;-63
2022/12/02 15:13:15;;;;;;;8.10;3.50;;;;;;;2.42;43.99;100530.69;24527;1335;3052584;-63
2022/12/02 15:15:44;;;;;;;9.00;3.20;;;;;;;2.33;43.56;100531.47;24550;1333;3026570;-65
2022/12/02 15:18:13;;;;;;;6.10;2.90;;;;;;;2.29;43.55;100535.13;24472;1332;3051115;-63
2022/12/02 15:20:41;;;;;;;6.50;2.50;;;;;;;2.33;43.64;100539.08;24519;1333;3026630;-61
2022/12/02 15:23:10;;;;;;;7.50;2.60;;;;;;;2.33;43.55;100540.11;24493;1333;3052594;-62
2022/12/02 15:25:40;;;;;;;7.10;3.10;;;;;;;2.21;43.17;100548.35;24500;1331;3028085;-62
2022/12/02 15:28:08;;;;;;;10.40;3.00;;;;;;;2.14;43.36;100553.95;24503;1340;3025018;-63
2022/12/02 15:30:43;;;;;;;5.90;2.50;;;;;;;2.20;43.32;100553.21;24456;1333;3053872;-61
2022/12/02 15:33:12;;;;;;;7.20;3.10;;;;;;;2.19;43.71;100555.45;24548;1326;3025867;-62
2022/12/02 15:35:41;;;;;;;8.00;3.50;;;;;;;2.13;43.76;100553.60;24472;1333;3052930;-63
2022/12/02 15:38:10;;;;;;;8.10;3.00;;;;;;;2.04;43.79;100551.95;24494;1332;3026591;-62
2022/12/02 15:40:39;;;;;;;7.40;3.30;;;;;;;1.97;43.77;100554.95;24430;1327;3056117;-62
2022/12/02 15:43:08;;;;;;;10.50;3.20;;;;;;;2.09;43.55;100552.77;24480;1325;3026690;-63
2022/12/02 15:45:39;;;;;;;7.50;2.70;;;;;;;2.10;43.64;100553.98;24475;1326;3029015;-62
2022/12/02 15:48:08;;;;;;;11.40;3.50;;;;;;;2.13;44.01;100557.92;24575;1333;3056386;-62
2022/12/02 15:50:37;;;;;;;7.80;3.20;;;;;;;2.07;44.48;100559.36;24476;1319;3028165;-62
2022/12/02 15:53:06;;;;;;;8.30;3.50;;;;;;;2.03;44.38;100560.43;24546;1333;3049217;-63
2022/12/02 15:55:35;;;;;;;8.30;3.70;;;;;;;2.07;44.11;100556.59;24462;1326;3026221;-62
2022/12/02 15:58:04;;;;;;;11.10;3.90;;;;;;;1.77;44.51;100557.17;24526;1333;3068492;-62
2022/12/02 16:00:33;;;;;;;10.40;3.60;;;;;;;1.81;44.46;100556.97;24457;1326;3028418;-63
2022/12/02 16:03:02;;;;;;;13.50;3.60;;;;;;;1.67;44.47;100557.74;24478;1340;3050174;-63
2022/12/02 16:05:31;;;;;;;10.60;3.50;;;;;;;1.65;44.41;100560.52;24501;1325;3025090;-62
2022/12/02 16:08:24;;;;;;;9.30;3.90;;;;;;;1.55;44.89;100564.21;24522;1341;3052412;-64
2022/12/02 16:10:57;;;;;;;13.60;4.00;;;;;;;1.55;45.01;100562.14;24510;1326;3026905;-64
2022/12/02 16:13:27;;;;;;;;;;;;;;;1.68;44.65;100560.33;24617;1326;3050742;-64
2022/12/02 16:15:56;;;;;;;6.60;2.80;;;;;;;1.64;44.86;100561.40;24519;1333;3026187;-61
2022/12/02 16:18:25;;;;;;;8.80;3.60;;;;;;;1.60;45.03;100562.13;24508;1333;3053123;-63
2022/12/02 16:20:55;;;;;;;11.90;3.50;;;;;;;1.51;45.08;100561.66;24497;1316;3028291;-62
2022/12/02 16:23:24;;;;;;;9.50;3.40;;;;;;;1.47;45.48;100565.48;24542;1324;3051706;-62
2022/12/02 16:25:53;;;;;;;11.50;3.80;;;;;;;1.46;45.59;100566.16;24530;1327;3028142;-64
2022/12/02 16:28:22;;;;;;;7.30;3.00;;;;;;;1.53;45.68;100571.48;24528;1331;3055179;-61
2022/12/02 16:30:51;;;;;;;10.70;3.60;;;;;;;1.56;45.42;100570.42;24581;1331;3028400;-61
2022/12/02 16:33:20;;;;;;;9.80;3.80;;;;;;;1.38;46.01;100569.67;24543;1332;3049733;-63
2022/12/02 16:35:49;;;;;;;13.70;3.70;;;;;;;1.36;46.32;100568.98;24575;1324;3028611;-66
2022/12/02 16:38:20;;;;;;;15.50;3.30;;;;;;;1.40;46.37;100571.04;24519;1331;3068167;-62
2022/12/02 16:40:49;;;;;;;12.00;3.50;;;;;;;1.35;46.62;100573.14;24519;1324;3028431;-63
2022/12/02 16:43:18;;;;;;;7.80;3.40;;;;;;;1.43;46.54;100571.54;24548;1331;3048572;-62
2022/12/02 16:45:47;;;;;;;9.80;3.60;;;;;;;1.39;46.80;100572.42;24593;1331;3028900;-63
2022/12/02 16:48:16;;;;;;;6.90;3.50;;;;;;;1.39;46.87;100577.08;24580;1331;3052014;-64
2022/12/02 16:50:45;;;;;;;9.10;3.30;;;;;;;1.31;47.20;100575.23;24540;1332;3028621;-63
2022/12/02 16:53:14;;;;;;;10.00;3.30;;;;;;;1.24;47.21;100570.26;24568;1324;3025962;-64
2022/12/02 16:55:43;;;;;;;7.70;3.20;;;;;;;1.30;47.21;100578.33;24505;1324;3051956;-61
2022/12/02 16:58:12;;;;;;;8.30;3.20;;;;;;;1.25;47.54;100579.05;24557;1324;3028684;-62
2022/12/02 17:00:41;;;;;;;7.00;2.80;;;;;;;1.20;47.92;100580.63;24533;1324;3050360;-64
2022/12/02 17:03:10;;;;;;;7.10;2.60;;;;;;;1.20;48.03;100576.84;24547;1326;3028322;-63
2022/12/02 17:05:39;;;;;;;5.80;2.90;;;;;;;1.19;48.11;100579.23;24534;1324;3052307;-64
2022/12/02 17:08:09;;;;;;;6.00;2.10;;;;;;;1.21;48.18;100577.69;24520;1330;3028102;-65
2022/12/02 17:10:38;;;;;;;9.40;2.90;;;;;;;1.22;47.90;100577.52;24614;1331;3028165;-62
2022/12/02 17:13:07;;;;;;;9.30;2.90;;;;;;;1.22;48.22;100584.77;24605;1331;3026903;-63
2022/12/02 17:15:38;;;;;;;5.60;2.80;;;;;;;1.18;48.21;100585.64;24609;1331;3028491;-62
2022/12/02 17:18:09;;;;;;;8.10;3.10;;;;;;;1.19;48.45;100588.39;24523;1331;3026677;-64
2022/12/02 17:20:38;;;;;;;8.00;2.90;;;;;;;1.12;48.73;100591.20;24549;1330;3028337;-65
2022/12/02 17:23:07;;;;;;;8.00;3.00;;;;;;;1.13;48.91;100592.73;24475;1322;3067320;-64
2022/12/02 17:25:36;;;;;;;6.40;2.60;;;;;;;1.03;48.88;100598.11;24554;1334;3025884;-65
2022/12/02 17:28:05;;;;;;;10.30;3.00;;;;;;;1.07;49.30;100599.66;24509;1340;3049399;-66
2022/12/02 17:30:34;;;;;;;6.20;2.90;;;;;;;1.08;49.03;100601.38;24555;1332;3026773;-65
2022/12/02 17:33:04;;;;;;;7.40;3.00;;;;;;;1.02;49.43;100598.46;24543;1332;3026135;-64
2022/12/02 17:35:33;;;;;;;7.90;3.00;;;;;;;0.99;49.61;100601.07;24511;1334;3027149;-65
2022/12/02 17:38:02;;;;;;;5.20;2.10;;;;;;;1.00;49.67;100600.55;24542;1317;3028861;-65
2022/12/02 17:40:31;;;;;;;12.00;2.80;;;;;;;1.09;49.36;100602.76;24588;1331;3049657;-63
2022/12/02 17:43:01;;;;;;;7.10;3.30;;;;;;;1.02;49.76;100601.05;24522;1343;3028863;-66
2022/12/02 17:45:30;;;;;;;5.70;2.30;;;;;;;0.91;50.05;100599.37;24537;1324;3028121;-67
2022/12/02 17:47:59;;;;;;;7.30;2.90;;;;;;;1.07;49.81;100603.11;24543;1331;3049828;-65
2022/12/02 17:50:28;;;;;;;7.20;2.70;;;;;;;0.95;49.92;100599.02;24622;1316;3024727;-66
2022/12/02 17:52:57;;;;;;;6.10;2.30;;;;;;;0.86;50.19;100596.80;24576;1324;3068475;-65
2022/12/02 17:55:26;;;;;;;5.40;2.40;;;;;;;0.94;50.10;100603.84;24587;1331;3026098;-61
2022/12/02 17:57:56;;;;;;;8.00;2.90;;;;;;;0.91;50.25;100605.77;24537;1331;3051249;-65
2022/12/02 18:00:26;;;;;;;6.50;2.50;;;;;;;0.85;50.51;100605.07;24479;1325;3028649;-64
2022/12/02 18:02:55;;;;;;;5.20;2.40;;;;;;;0.83;50.69;100608.18;24505;1324;3024930;-64
2022/12/02 18:05:23;;;;;;;6.60;2.90;;;;;;;0.83;50.81;100611.63;24526;1331;3048595;-66
2022/12/02 18:07:52;;;;;;;6.60;2.50;;;;;;;0.79;50.98;100615.09;24639;1324;3026132;-68
2022/12/02 18:10:22;;;;;;;5.20;2.10;;;;;;;0.87;51.10;100608.87;24562;1331;3051888;-67
2022/12/02 18:12:51;;;;;;;7.80;3.20;;;;;;;0.91;50.64;100610.05;24590;1327;3028182;-65
2022/12/02 18:15:20;;;;;;;6.20;2.60;;;;;;;0.77;51.30;100610.45;24508;1332;3026670;-64
2022/12/02 18:17:49;;;;;;;10.40;2.70;;;;;;;0.80;51.17;100608.88;24558;1341;3051484;-63
2022/12/02 18:20:20;;;;;;;5.50;2.50;;;;;;;0.82;51.36;100610.43;24574;1339;3026163;-67
2022/12/02 18:23:15;;;;;;;6.90;2.90;;;;;;;0.69;51.82;100611.66;24567;1324;3069466;-65
2022/12/02 18:25:47;;;;;;;6.50;2.70;;;;;;;0.60;51.81;100611.33;24572;1334;3027585;-63
2022/12/02 18:28:16;;;;;;;13.10;2.60;;;;;;;0.70;51.44;100608.05;24572;1316;3028435;-64
2022/12/02 18:30:45;;;;;;;4.70;2.20;;;;;;;0.61;51.51;100617.72;24526;1324;3068907;-65
2022/12/02 18:33:15;;;;;;;4.80;2.30;;;;;;;0.60;52.20;100616.85;24552;1330;3026267;-63
2022/12/02 18:35:44;;;;;;;7.30;2.90;;;;;;;0.70;51.80;100615.11;24562;1324;3026549;-64
2022/12/02 18:38:13;;;;;;;6.10;2.70;;;;;;;0.64;52.19;100617.02;24561;1323;3068450;-65
2022/12/02 18:40:42;;;;;;;6.10;2.50;;;;;;;0.58;52.24;100615.48;24587;1323;3026566;-62
2022/12/02 18:43:12;;;;;;;8.20;2.80;;;;;;;0.59;52.27;100621.69;24546;1338;3049736;-66
2022/12/02 18:45:41;;;;;;;6.80;2.60;;;;;;;0.62;52.11;100631.85;24811;1332;3027481;-65
2022/12/02 18:48:12;;;;;;;6.80;2.60;;;;;;;0.60;52.20;100635.30;24584;1330;3051352;-64
2022/12/02 18:50:41;;;;;;;7.50;2.30;;;;;;;0.53;52.16;100629.79;24537;1324;3028873;-63
2022/12/02 18:53:10;;;;;;;8.00;2.80;;;;;;;0.57;52.04;100633.74;24541;1329;3051527;-61
2022/12/02 18:55:44;;;;;;;7.40;2.80;;;;;;;0.47;52.42;100636.69;24524;1331;3052476;-63
2022/12/02 18:58:13;;;;;;;13.70;3.40;;;;;;;0.47;52.70;100637.38;24538;1317;3028127;-62
2022/12/02 19:00:42;;;;;;;6.60;2.60;;;;;;;0.56;52.25;100636.34;24588;1324;3051498;-65
2022/12/02 19:03:37;;;;;;;5.60;2.80;;;;;;;0.44;52.77;100636.88;24554;1331;3051584;-64
2022/12/02 19:06:06;;;;;;;6.50;2.80;;;;;;;0.37;52.87;100646.70;24566;1324;3028825;-64
2022/12/02 19:08:36;;;;;;;7.40;2.30;;;;;;;0.45;52.85;100647.39;24517;1331;3051724;-66
2022/12/02 19:11:05;;;;;;;7.20;2.40;;;;;;;0.44;53.07;100646.17;24604;1325;3026048;-65
2022/12/02 19:13:58;;;;;;;5.20;1.90;;;;;;;0.43;52.95;100646.86;24499;1331;3052614;-65
2022/12/02 19:16:29;;;;;;;6.30;2.30;;;;;;;0.46;52.86;100649.10;24586;1324;3026619;-64
2022/12/02 19:18:58;;;;;;;9.30;2.40;;;;;;;0.36;53.28;100648.93;24549;1334;3052737;-65
2022/12/02 19:21:28;;;;;;;7.60;2.60;;;;;;;0.38;53.18;100650.14;24456;1324;3026816;-65
2022/12/02 19:23:57;;;;;;;6.00;2.70;;;;;;;0.32;53.53;100649.45;24629;1329;3056030;-65
2022/12/02 19:26:27;;;;;;;8.80;2.70;;;;;;;0.35;53.26;100649.44;24574;1337;3028660;-70
2022/12/02 19:28:56;;;;;;;5.00;2.20;;;;;;;0.28;53.47;100650.31;24547;1332;3050254;-63
2022/12/02 19:31:30;;;;;;;7.10;2.40;;;;;;;0.24;53.54;100649.10;24676;1331;3055211;-65
2022/12/02 19:33:59;;;;;;;7.70;3.00;;;;;;;0.15;53.73;100652.88;24617;1331;3026588;-64
2022/12/02 19:36:28;;;;;;;5.90;2.50;;;;;;;0.17;53.96;100653.56;24535;1330;3027449;-63
2022/12/02 19:38:58;;;;;;;5.40;2.20;;;;;;;0.26;53.84;100656.86;24654;1332;3056362;-63
2022/12/02 19:41:27;;;;;;;8.90;2.80;;;;;;;0.24;53.85;100658.58;24601;1331;3027002;-66
2022/12/02 19:43:56;;;;;;;7.10;2.50;;;;;;;0.18;54.27;100660.13;24598;1327;3049185;-64
2022/12/02 19:46:25;;;;;;;6.80;2.70;;;;;;;0.10;54.63;100667.86;25413;1331;3025938;-62
2022/12/02 19:48:54;;;;;;;8.90;3.00;;;;;;;0.11;54.51;100665.80;24742;1331;3067495;-67
2022/12/02 19:51:23;;;;;;;5.80;2.70;;;;;;;0.00;54.90;100666.13;25178;1331;3026436;-65
2022/12/02 19:53:52;;;;;;;4.70;2.70;;;;;;;-0.05;54.84;100669.56;24585;1331;3048008;-64
2022/12/02 19:56:21;;;;;;;8.60;2.40;;;;;;;0.05;54.77;100670.45;24560;1324;3027284;-67
2022/12/02 19:58:50;;;;;;;6.00;2.40;;;;;;;0.15;54.57;100672.01;24517;1335;3024803;-65
2022/12/02 20:01:25;;;;;;;8.60;3.00;;;;;;;0.12;54.90;100670.11;24549;1332;3048777;-66
2022/12/02 20:03:54;;;;;;;8.30;3.00;;;;;;;0.10;54.93;100674.92;24545;1323;3026394;-65
2022/12/02 20:06:23;;;;;;;6.00;2.40;;;;;;;0.12;54.81;100674.59;24562;1338;3051738;-66
2022/12/02 20:08:52;;;;;;;6.90;2.50;;;;;;;0.16;55.10;100675.29;24573;1330;3026641;-64
2022/12/02 20:11:21;;;;;;;6.80;2.30;;;;;;;0.11;55.05;100674.93;24566;1331;3051465;-63
2022/12/02 20:13:50;;;;;;;5.30;2.50;;;;;;;0.22;54.86;100674.43;24608;1324;3026247;-65
2022/12/02 20:16:21;;;;;;;7.50;2.00;;;;;;;0.27;54.50;100673.41;24692;1324;3051927;-64